STS Fryderyk Chopin — SPS2298 — position and weather

sailwx.info

Track history (hours):
 
Tides and Currents Weather Stations Pressure Air Temp Water Temp Dewpoint Dewpoint Depression Visibility Wind Speed Wind Dir Waves Ship Positions

STS Fryderyk Chopin (Poland)

Ship's website: http://www.fryderykchopin.pl/

Last reported at 2017-Oct-18 22:49 UTC. Time now 2017-Oct-19 03:26 UTC.
Position N 54°43' E 007°17'.

Length 44 m; draft 4.2 m.

Type: Sailing vessel. MMSI: 261000290.

Date/timePositionNaut miles runAvg speedWind from/ knotsBaromVisibWave heightAir tempDewpointWater temp
2017-Oct-18 22:49N 54°43' E 007°17'3 7.5
2017-Oct-18 22:28N 54°45' E 007°18'3 6.7
2017-Oct-18 21:59N 54°48' E 007°20'2 4.8
2017-Oct-18 21:30N 54°50' E 007°22'2 4.0
2017-Oct-18 21:01N 54°52' E 007°24'2 3.3
2017-Oct-18 20:30N 54°53' E 007°26'2 3.9
2017-Oct-18 20:01N 54°55' E 007°28'1 2.5
2017-Oct-18 19:30N 54°56' E 007°29'0 0.7
2017-Oct-18 19:00N 54°56' E 007°29'1 1.2
2017-Oct-18 18:30N 54°57' E 007°28'0 0.3
2017-Oct-18 17:59N 54°57' E 007°28'0 0.1
2017-Oct-18 17:27N 54°57' E 007°28'0 0.2
2017-Oct-18 17:00N 54°57' E 007°28'1 1.0
2017-Oct-18 16:29N 54°57' E 007°29'0 0.2
2017-Oct-18 16:00N 54°57' E 007°29'0 0.2
2017-Oct-18 15:31N 54°57' E 007°29'0 0.4
2017-Oct-18 15:00N 54°57' E 007°29'1 0.8
2017-Oct-18 14:01N 54°57' E 007°31'1 1.7
2017-Oct-18 13:30N 54°58' E 007°31'4 7.8
2017-Oct-18 13:00N 55°01' E 007°35'5 9.1
2017-Oct-18 12:30N 55°04' E 007°41'5 9.0
2017-Oct-18 12:00N 55°07' E 007°46'5 9.1
2017-Oct-18 11:30N 55°11' E 007°51'5 8.9
2017-Oct-18 11:00N 55°14' E 007°57'4 8.7
2017-Oct-18 10:30N 55°18' E 008°01'4 8.7
2017-Oct-18 10:00N 55°21' E 008°06'4 8.7
2017-Oct-18 09:30N 55°24' E 008°11'5 8.6
2017-Oct-18 08:58N 55°27' E 008°17'3 7.3
2017-Oct-18 08:31N 55°29' E 008°22'3 5.3
2017-Oct-18 07:57N 55°28' E 008°27'0 0.0
2017-Oct-18 07:12N 55°28' E 008°27'0 0.0
2017-Oct-18 06:54N 55°28' E 008°27'0 0.0
2017-Oct-18 06:27N 55°28' E 008°27'0 0.0
2017-Oct-18 05:54N 55°28' E 008°27'0 0.0
2017-Oct-18 05:24N 55°28' E 008°27'0 0.0
2017-Oct-18 04:39N 55°28' E 008°27'0 0.0
2017-Oct-18 04:24N 55°28' E 008°27'0 0.0
2017-Oct-18 04:00N 55°28' E 008°27'0 0.0
2017-Oct-18 03:30N 55°28' E 008°27'0 0.0
2017-Oct-18 03:00N 55°28' E 008°27'0 0.0
2017-Oct-18 02:30N 55°28' E 008°27'0 0.0
2017-Oct-18 01:45N 55°28' E 008°27'0 0.0
2017-Oct-18 00:45N 55°28' E 008°27'0 0.0
2017-Oct-18 00:30N 55°28' E 008°27'0 0.0
2017-Oct-17 23:15N 55°28' E 008°27'0 0.0
2017-Oct-17 23:00N 55°28' E 008°27'0 0.0
2017-Oct-17 22:21N 55°28' E 008°27'0 0.0
2017-Oct-17 21:48N 55°28' E 008°27'0 0.0
2017-Oct-17 20:51N 55°28' E 008°27'0 0.0
2017-Oct-17 20:09N 55°28' E 008°27'0 0.0
2017-Oct-17 19:51N 55°28' E 008°27'0 0.0
2017-Oct-17 19:24N 55°28' E 008°27'0 0.0
2017-Oct-17 18:54N 55°28' E 008°27'0 0.0
2017-Oct-17 18:24N 55°28' E 008°27'0 0.0
2017-Oct-17 17:51N 55°28' E 008°27'0 0.0
2017-Oct-17 17:27N 55°28' E 008°27'0 0.0
2017-Oct-17 16:42N 55°28' E 008°27'0 0.0
2017-Oct-17 16:27N 55°28' E 008°27'0 0.0
2017-Oct-17 15:54N 55°28' E 008°27'0 0.0
2017-Oct-17 15:15N 55°28' E 008°27'0 0.0
2017-Oct-17 15:00N 55°28' E 008°27'0 0.0
2017-Oct-17 14:30N 55°28' E 008°27'0 0.0
2017-Oct-17 14:00N 55°28' E 008°27'0 0.0
2017-Oct-17 13:30N 55°28' E 008°27'0 0.0
2017-Oct-17 12:57N 55°28' E 008°27'0 0.0
2017-Oct-17 12:30N 55°28' E 008°27'0 0.0
2017-Oct-17 12:00N 55°28' E 008°27'0 0.0
2017-Oct-17 11:18N 55°28' E 008°27'0 0.0
2017-Oct-17 09:48N 55°28' E 008°27'0 0.0
2017-Oct-17 09:30N 55°28' E 008°27'0 0.0
2017-Oct-17 08:51N 55°28' E 008°27'0 0.0
2017-Oct-17 08:21N 55°28' E 008°27'0 0.0
2017-Oct-17 07:48N 55°28' E 008°27'0 0.0
2017-Oct-17 07:18N 55°28' E 008°27'0 0.0
2017-Oct-17 06:54N 55°28' E 008°27'0 0.0
2017-Oct-17 06:24N 55°28' E 008°27'0 0.0
2017-Oct-17 05:54N 55°28' E 008°27'0 0.0
2017-Oct-17 05:21N 55°28' E 008°27'0 0.0
2017-Oct-17 04:54N 55°28' E 008°27'0 0.0
2017-Oct-17 04:27N 55°28' E 008°27'0 0.0
2017-Oct-17 03:57N 55°28' E 008°27'0 0.0
2017-Oct-17 03:09N 55°28' E 008°27'0 0.0
2017-Oct-17 02:57N 55°28' E 008°27'0 0.0
2017-Oct-17 02:27N 55°28' E 008°27'0 0.0
2017-Oct-17 01:42N 55°28' E 008°27'0 0.0
2017-Oct-17 01:15N 55°28' E 008°27'0 0.0
2017-Oct-17 00:57N 55°28' E 008°27'0 0.0
2017-Oct-17 00:30N 55°28' E 008°27'0 0.0
2017-Oct-17 00:00N 55°28' E 008°27'0 0.0
2017-Oct-16 23:30N 55°28' E 008°27'0 0.0
2017-Oct-16 22:57N 55°28' E 008°27'0 0.0
2017-Oct-16 22:30N 55°28' E 008°27'0 0.0
2017-Oct-16 21:30N 55°28' E 008°27'0 0.0
2017-Oct-16 20:00N 55°28' E 008°27'0 0.0
2017-Oct-16 19:30N 55°28' E 008°27'0 0.0
2017-Oct-16 19:00N 55°28' E 008°27'0 0.0
2017-Oct-16 18:21N 55°28' E 008°27'0 0.0
2017-Oct-16 17:51N 55°28' E 008°27'0 0.0
2017-Oct-16 16:48N 55°28' E 008°27'0 0.0
2017-Oct-16 16:30N 55°28' E 008°27'1 2.9
2017-Oct-16 16:00N 55°28' E 008°25'3 6.4
2017-Oct-16 15:30N 55°28' E 008°19'4 8.6
2017-Oct-16 15:00N 55°25' E 008°13'9 9.0
2017-Oct-16 14:00N 55°24' E 007°57'4 8.6
2017-Oct-16 13:30N 55°24' E 007°50'4 8.7
2017-Oct-16 13:00N 55°26' E 007°43'1 1.0
2017-Oct-16 12:30N 55°26' E 007°42'2 3.2
2017-Oct-16 12:00N 55°27' E 007°39'2 3.8
2017-Oct-16 11:30N 55°28' E 007°36'1 2.5
2017-Oct-16 11:00N 55°28' E 007°34'1 2.8
2017-Oct-16 10:30N 55°29' E 007°33'2 4.4
2017-Oct-16 10:00N 55°31' E 007°30'3 5.8
2017-Oct-16 09:30N 55°33' E 007°26'3 5.8
2017-Oct-16 09:00N 55°35' E 007°22'1 2.9
2017-Oct-16 08:30N 55°36' E 007°21'2 4.7
2017-Oct-16 08:00N 55°38' E 007°20'3 5.2
2017-Oct-16 07:30N 55°41' E 007°18'2 4.6
2017-Oct-16 07:00N 55°43' E 007°16'2 4.8
2017-Oct-16 06:30N 55°45' E 007°14'2 3.5
2017-Oct-16 05:59N 55°46' E 007°12'2 4.0
2017-Oct-16 05:30N 55°48' E 007°11'2 4.6
2017-Oct-16 05:00N 55°50' E 007°09'54 3.4
2017-Oct-15 12:55N 56°44' E 006°56'2 4.2
2017-Oct-15 12:30N 56°44' E 006°60'30 3.3
2017-Oct-15 03:18N 56°49' E 007°54'2 4.3
2017-Oct-15 02:52N 56°50' E 007°52'7 3.3
2017-Oct-15 00:42N 56°57' E 007°46'1 2.4
2017-Oct-15 00:15N 56°58' E 007°46'1 3.3
2017-Oct-14 23:57N 56°59' E 007°46'2 3.9
2017-Oct-14 23:30N 57°01' E 007°46'2 4.6
2017-Oct-14 22:59N 57°03' E 007°46'2 3.9
2017-Oct-14 22:29N 57°05' E 007°46'31 5.7
2017-Oct-14 17:04N 57°36' E 007°43'3 6.4
2017-Oct-14 16:36N 57°39' E 007°43'1 5.7
2017-Oct-14 16:30N 57°39' E 007°43'3 5.4
2017-Oct-14 15:57N 57°42' E 007°44'3 5.9
2017-Oct-14 15:30N 57°45' E 007°45'3 6.6
2017-Oct-14 14:59N 57°48' E 007°46'3 6.0
2017-Oct-14 14:29N 57°51' E 007°48'3 6.1
2017-Oct-14 14:00N 57°54' E 007°49'2 4.1
2017-Oct-14 13:30N 57°56' E 007°47'2 3.4
2017-Oct-14 13:00N 57°57' E 007°48'3 6.5
2017-Oct-14 12:30N 57°60' E 007°52'3 6.8
2017-Oct-14 12:00N 58°01' E 007°57'3 6.6
2017-Oct-14 11:30N 58°03' E 008°03'3 7.1
2017-Oct-14 11:00N 58°06' E 008°02'3 5.4
2017-Oct-14 10:30N 58°09' E 007°59'0 0.0
2017-Oct-14 10:00N 58°09' E 007°59'0 0.0
2017-Oct-14 09:30N 58°09' E 007°59'0 0.0
2017-Oct-14 09:00N 58°09' E 007°59'0 0.0
2017-Oct-14 08:30N 58°09' E 007°59'0 0.0
2017-Oct-14 08:00N 58°09' E 007°59'0 0.0
2017-Oct-14 07:30N 58°09' E 007°59'0 0.0
2017-Oct-14 07:00N 58°09' E 007°59'0 0.0
2017-Oct-14 06:30N 58°09' E 007°59'0 0.0
2017-Oct-14 06:00N 58°09' E 007°59'0 0.0
2017-Oct-14 05:30N 58°09' E 007°59'0 0.0
2017-Oct-14 05:00N 58°09' E 007°59'0 0.0
2017-Oct-14 04:30N 58°09' E 007°59'0 0.0
2017-Oct-14 04:00N 58°09' E 007°59'0 0.0
2017-Oct-14 03:30N 58°09' E 007°59'0 0.0
2017-Oct-14 03:00N 58°09' E 007°59'0 0.0
2017-Oct-14 02:30N 58°09' E 007°59'0 0.0
2017-Oct-14 02:00N 58°09' E 007°59'0 0.0
2017-Oct-14 01:30N 58°09' E 007°59'0 0.0
2017-Oct-14 01:00N 58°09' E 007°59'0 0.0
2017-Oct-14 00:30N 58°09' E 007°59'0 0.0
2017-Oct-14 00:00N 58°09' E 007°59'0 0.0
2017-Oct-13 23:30N 58°09' E 007°59'0 0.0
2017-Oct-13 23:00N 58°09' E 007°59'0 0.0
2017-Oct-13 22:30N 58°09' E 007°59'0 0.0
2017-Oct-13 22:00N 58°09' E 007°59'0 0.0
2017-Oct-13 21:30N 58°09' E 007°59'0 0.0
2017-Oct-13 21:00N 58°09' E 007°59'0 0.0
2017-Oct-13 20:30N 58°09' E 007°59'0 0.0
2017-Oct-13 20:00N 58°09' E 007°59'0 0.0
2017-Oct-13 19:30N 58°09' E 007°59'0 0.0
2017-Oct-13 19:00N 58°09' E 007°59'0 0.0
2017-Oct-13 18:30N 58°09' E 007°59'0 0.0
2017-Oct-13 18:00N 58°09' E 007°59'0 0.0
2017-Oct-13 17:30N 58°09' E 007°59'0 0.0
2017-Oct-13 17:00N 58°09' E 007°59'0 0.0
2017-Oct-13 16:30N 58°09' E 007°59'0 0.0
2017-Oct-13 16:00N 58°09' E 007°59'0 0.0
2017-Oct-13 15:30N 58°09' E 007°59'0 0.0
2017-Oct-13 15:00N 58°09' E 007°59'0 0.0
2017-Oct-13 14:30N 58°09' E 007°59'0 0.0
2017-Oct-13 14:00N 58°09' E 007°59'0 0.0
2017-Oct-13 13:27N 58°09' E 007°59'0 0.0
2017-Oct-13 13:00N 58°09' E 007°59'0 0.0
2017-Oct-13 12:30N 58°09' E 007°59'0 0.0
2017-Oct-13 12:00N 58°09' E 007°59'0 0.0
2017-Oct-13 11:30N 58°09' E 007°59'0 0.0
2017-Oct-13 11:00N 58°09' E 007°59'0 0.0
2017-Oct-13 10:30N 58°09' E 007°59'0 0.0
2017-Oct-13 10:00N 58°09' E 007°59'0 0.0
2017-Oct-13 09:30N 58°09' E 007°59'0 0.0
2017-Oct-13 09:00N 58°09' E 007°59'0 0.0
2017-Oct-13 08:30N 58°09' E 007°59'0 0.0
2017-Oct-13 08:00N 58°09' E 007°59'0 0.0
2017-Oct-12 16:21N 58°09' E 007°59'0 0.0
2017-Oct-12 16:00N 58°09' E 007°59'0 0.0
2017-Oct-12 15:30N 58°09' E 007°59'0 0.0
2017-Oct-12 15:00N 58°09' E 007°59'0 0.0
2017-Oct-12 14:30N 58°09' E 007°59'0 0.0
2017-Oct-12 14:00N 58°09' E 007°59'0 0.0
2017-Oct-12 13:30N 58°09' E 007°59'0 0.0
2017-Oct-12 13:00N 58°09' E 007°59'0 0.0
2017-Oct-12 12:30N 58°09' E 007°59'0 0.0
2017-Oct-12 12:00N 58°09' E 007°59'0 0.0
2017-Oct-12 11:30N 58°09' E 007°59'0 0.0
2017-Oct-12 11:00N 58°09' E 007°59'0 0.0
2017-Oct-12 10:30N 58°09' E 007°59'0 0.0
2017-Oct-12 10:00N 58°09' E 007°59'0 0.0
2017-Oct-12 09:30N 58°09' E 007°59'0 0.0
2017-Oct-12 09:00N 58°09' E 007°59'0 0.0
2017-Oct-12 08:30N 58°09' E 007°59'0 0.0
2017-Oct-12 08:00N 58°09' E 007°59'0 0.1
2017-Oct-12 07:30N 58°09' E 007°59'0 0.1
2017-Oct-12 07:00N 58°09' E 007°59'0 0.0
2017-Oct-12 06:30N 58°09' E 007°59'0 0.0
2017-Oct-12 06:00N 58°09' E 007°59'0 0.0
2017-Oct-12 05:30N 58°09' E 007°59'0 0.0
2017-Oct-12 05:00N 58°09' E 007°59'0 0.0
2017-Oct-12 04:30N 58°09' E 007°59'0 0.0
2017-Oct-12 04:00N 58°09' E 007°59'0 0.0
2017-Oct-12 03:30N 58°09' E 007°59'0 0.0
2017-Oct-12 03:00N 58°09' E 007°59'0 0.0
2017-Oct-12 02:30N 58°09' E 007°59'0 0.0
2017-Oct-12 02:00N 58°09' E 007°59'0 0.0
2017-Oct-12 01:30N 58°09' E 007°59'0 0.0
2017-Oct-12 01:00N 58°09' E 007°59'0 0.0
2017-Oct-12 00:30N 58°09' E 007°59'0 0.0
2017-Oct-12 00:00N 58°09' E 007°59'0 0.1
2017-Oct-11 23:30N 58°09' E 007°59'2 3.4
2017-Oct-11 22:59N 58°07' E 008°01'4 7.3
2017-Oct-11 22:30N 58°04' E 008°05'3 5.6
2017-Oct-11 22:00N 58°04' E 008°11'2 4.8
2017-Oct-11 21:30N 58°04' E 008°15'2 4.0
2017-Oct-11 21:00N 58°03' E 008°19'3 5.6
2017-Oct-11 20:30N 58°03' E 008°24'3 5.7
2017-Oct-11 20:00N 58°02' E 008°29'3 5.7
2017-Oct-11 19:30N 58°02' E 008°35'3 5.0
2017-Oct-11 19:00N 58°01' E 008°39'2 4.6
2017-Oct-11 18:29N 57°60' E 008°43'2 4.3
2017-Oct-11 17:55N 57°59' E 008°47'80 4.4
2017-Oct-11 00:00N 57°53' E 011°17'2 4.2
2017-Oct-10 23:30N 57°52' E 011°13'3 5.0
2017-Oct-10 22:59N 57°50' E 011°10'3 5.3
2017-Oct-10 22:29N 57°47' E 011°10'3 5.4
2017-Oct-10 22:00N 57°45' E 011°09'2 4.5
2017-Oct-10 21:30N 57°43' E 011°08'2 4.9
2017-Oct-10 21:00N 57°40' E 011°08'3 6.8
2017-Oct-10 20:30N 57°37' E 011°08'4 7.7
2017-Oct-10 20:00N 57°33' E 011°11'4 7.6
2017-Oct-10 19:30N 57°30' E 011°14'3 6.5
2017-Oct-10 19:00N 57°27' E 011°18'4 7.0
2017-Oct-10 18:30N 57°24' E 011°20'4 8.7
2017-Oct-10 18:00N 57°20' E 011°22'610.2
2017-Oct-10 17:24N 57°14' E 011°25'4 9.0
2017-Oct-10 17:00N 57°12' E 011°30'5 9.0
2017-Oct-10 16:30N 57°09' E 011°37'58 8.4
2017-Oct-10 09:31N 56°14' E 012°16'010.1
2017-Oct-10 09:30N 56°14' E 012°16'510.1
2017-Oct-10 09:00N 56°11' E 012°23'510.2
2017-Oct-10 08:30N 56°08' E 012°30'510.5
2017-Oct-10 08:00N 56°04' E 012°37'510.2
2017-Oct-10 07:30N 55°60' E 012°41'510.1
2017-Oct-10 07:00N 55°55' E 012°45'510.2
2017-Oct-10 06:30N 55°50' E 012°45'510.3
2017-Oct-10 06:00N 55°45' E 012°42'4 8.5
2017-Oct-10 05:30N 55°42' E 012°36'1 2.1
2017-Oct-10 04:58N 55°41' E 012°36'0 0.0
2017-Oct-10 04:28N 55°41' E 012°36'0 0.0
2017-Oct-10 03:58N 55°41' E 012°36'0 0.0
2017-Oct-10 03:28N 55°41' E 012°36'0 0.0
2017-Oct-10 02:58N 55°41' E 012°36'0 0.0
2017-Oct-10 02:28N 55°41' E 012°36'0 0.0
2017-Oct-10 01:58N 55°41' E 012°36'0 0.0
2017-Oct-10 01:28N 55°41' E 012°36'0 0.0
2017-Oct-10 00:58N 55°41' E 012°36'0 0.0
2017-Oct-10 00:28N 55°41' E 012°36'0 0.0
2017-Oct-09 23:58N 55°41' E 012°36'0 0.0
2017-Oct-09 23:28N 55°41' E 012°36'0 0.0
2017-Oct-09 22:58N 55°41' E 012°36'0 0.0
2017-Oct-09 22:28N 55°41' E 012°36'0 0.0
2017-Oct-09 21:58N 55°41' E 012°36'0 0.0
2017-Oct-09 21:28N 55°41' E 012°36'0 0.0
2017-Oct-09 20:58N 55°41' E 012°36'0 0.0
2017-Oct-09 20:28N 55°41' E 012°36'0 0.0
2017-Oct-09 19:58N 55°41' E 012°36'0 0.0
2017-Oct-09 19:28N 55°41' E 012°36'0 0.0
2017-Oct-09 18:58N 55°41' E 012°36'0 0.0
2017-Oct-09 18:28N 55°41' E 012°36'0 0.0
2017-Oct-09 17:58N 55°41' E 012°36'0 0.0
2017-Oct-09 17:28N 55°41' E 012°36'0 0.0
2017-Oct-09 16:58N 55°41' E 012°36'0 0.0
2017-Oct-09 16:28N 55°41' E 012°36'0 0.0
2017-Oct-09 15:58N 55°41' E 012°36'0 0.0
2017-Oct-09 15:28N 55°41' E 012°36'0 0.0
2017-Oct-09 14:58N 55°41' E 012°36'0 0.0
2017-Oct-09 14:28N 55°41' E 012°36'0 0.0
2017-Oct-09 13:58N 55°41' E 012°36'0 0.0
2017-Oct-09 13:28N 55°41' E 012°36'0 0.0
2017-Oct-09 12:58N 55°41' E 012°36'0 0.0
2017-Oct-09 12:28N 55°41' E 012°36'0 0.0
2017-Oct-09 11:58N 55°41' E 012°36'0 0.0
2017-Oct-09 11:28N 55°41' E 012°36'0 0.0
2017-Oct-09 10:58N 55°41' E 012°36'0 0.0
2017-Oct-09 10:28N 55°41' E 012°36'0 0.0
2017-Oct-09 09:58N 55°41' E 012°36'0 0.0
2017-Oct-09 09:28N 55°41' E 012°36'0 0.0
2017-Oct-09 08:58N 55°41' E 012°36'0 0.0
2017-Oct-09 08:28N 55°41' E 012°36'0 0.0
2017-Oct-09 07:58N 55°41' E 012°36'0 0.0
2017-Oct-09 07:28N 55°41' E 012°36'0 0.0
2017-Oct-09 06:58N 55°41' E 012°36'0 0.0
2017-Oct-09 06:28N 55°41' E 012°36'0 0.0
2017-Oct-09 05:58N 55°41' E 012°36'0 0.0
2017-Oct-09 05:28N 55°41' E 012°36'0 0.0
2017-Oct-09 04:58N 55°41' E 012°36'0 0.0
2017-Oct-09 04:28N 55°41' E 012°36'0 0.0
2017-Oct-09 03:58N 55°41' E 012°36'0 0.0
2017-Oct-09 03:28N 55°41' E 012°36'0 0.0
2017-Oct-09 02:58N 55°41' E 012°36'0 0.0
2017-Oct-09 02:28N 55°41' E 012°36'0 0.0
2017-Oct-09 01:58N 55°41' E 012°36'0 0.0
2017-Oct-09 01:25N 55°41' E 012°36'0 0.0
2017-Oct-09 00:58N 55°41' E 012°36'0 0.0
2017-Oct-09 00:28N 55°41' E 012°36'0 0.0
2017-Oct-08 23:58N 55°41' E 012°36'0 0.0
2017-Oct-08 23:28N 55°41' E 012°36'0 0.0
2017-Oct-08 22:58N 55°41' E 012°36'  
Track history (hours):
 
Tides and Currents Weather Stations Pressure Air Temp Water Temp Dewpoint Dewpoint Depression Visibility Wind Speed Wind Dir Waves Ship Positions

STS Fryderyk Chopin (Poland)

Ship's website: http://www.fryderykchopin.pl/

Last reported at 2017-Oct-18 22:49 UTC. Time now 2017-Oct-19 03:26 UTC.
Position N 54°43' E 007°17'.

Length 44 m; draft 4.2 m.

Type: Sailing vessel. MMSI: 261000290.

Date/timePositionNaut miles runAvg speedWind from/ knotsBaromVisibWave heightAir tempDewpointWater temp
2017-Oct-18 22:49N 54°43' E 007°17'3 7.5
2017-Oct-18 22:28N 54°45' E 007°18'3 6.7
2017-Oct-18 21:59N 54°48' E 007°20'2 4.8
2017-Oct-18 21:30N 54°50' E 007°22'2 4.0
2017-Oct-18 21:01N 54°52' E 007°24'2 3.3
2017-Oct-18 20:30N 54°53' E 007°26'2 3.9
2017-Oct-18 20:01N 54°55' E 007°28'1 2.5
2017-Oct-18 19:30N 54°56' E 007°29'0 0.7
2017-Oct-18 19:00N 54°56' E 007°29'1 1.2
2017-Oct-18 18:30N 54°57' E 007°28'0 0.3
2017-Oct-18 17:59N 54°57' E 007°28'0 0.1
2017-Oct-18 17:27N 54°57' E 007°28'0 0.2
2017-Oct-18 17:00N 54°57' E 007°28'1 1.0
2017-Oct-18 16:29N 54°57' E 007°29'0 0.2
2017-Oct-18 16:00N 54°57' E 007°29'0 0.2
2017-Oct-18 15:31N 54°57' E 007°29'0 0.4
2017-Oct-18 15:00N 54°57' E 007°29'1 0.8
2017-Oct-18 14:01N 54°57' E 007°31'1 1.7
2017-Oct-18 13:30N 54°58' E 007°31'4 7.8
2017-Oct-18 13:00N 55°01' E 007°35'5 9.1
2017-Oct-18 12:30N 55°04' E 007°41'5 9.0
2017-Oct-18 12:00N 55°07' E 007°46'5 9.1
2017-Oct-18 11:30N 55°11' E 007°51'5 8.9
2017-Oct-18 11:00N 55°14' E 007°57'4 8.7
2017-Oct-18 10:30N 55°18' E 008°01'4 8.7
2017-Oct-18 10:00N 55°21' E 008°06'4 8.7
2017-Oct-18 09:30N 55°24' E 008°11'5 8.6
2017-Oct-18 08:58N 55°27' E 008°17'3 7.3
2017-Oct-18 08:31N 55°29' E 008°22'3 5.3
2017-Oct-18 07:57N 55°28' E 008°27'0 0.0
2017-Oct-18 07:12N 55°28' E 008°27'0 0.0
2017-Oct-18 06:54N 55°28' E 008°27'0 0.0
2017-Oct-18 06:27N 55°28' E 008°27'0 0.0
2017-Oct-18 05:54N 55°28' E 008°27'0 0.0
2017-Oct-18 05:24N 55°28' E 008°27'0 0.0
2017-Oct-18 04:39N 55°28' E 008°27'0 0.0
2017-Oct-18 04:24N 55°28' E 008°27'0 0.0
2017-Oct-18 04:00N 55°28' E 008°27'0 0.0
2017-Oct-18 03:30N 55°28' E 008°27'0 0.0
2017-Oct-18 03:00N 55°28' E 008°27'0 0.0
2017-Oct-18 02:30N 55°28' E 008°27'0 0.0
2017-Oct-18 01:45N 55°28' E 008°27'0 0.0
2017-Oct-18 00:45N 55°28' E 008°27'0 0.0
2017-Oct-18 00:30N 55°28' E 008°27'0 0.0
2017-Oct-17 23:15N 55°28' E 008°27'0 0.0
2017-Oct-17 23:00N 55°28' E 008°27'0 0.0
2017-Oct-17 22:21N 55°28' E 008°27'0 0.0
2017-Oct-17 21:48N 55°28' E 008°27'0 0.0
2017-Oct-17 20:51N 55°28' E 008°27'0 0.0
2017-Oct-17 20:09N 55°28' E 008°27'0 0.0
2017-Oct-17 19:51N 55°28' E 008°27'0 0.0
2017-Oct-17 19:24N 55°28' E 008°27'0 0.0
2017-Oct-17 18:54N 55°28' E 008°27'0 0.0
2017-Oct-17 18:24N 55°28' E 008°27'0 0.0
2017-Oct-17 17:51N 55°28' E 008°27'0 0.0
2017-Oct-17 17:27N 55°28' E 008°27'0 0.0
2017-Oct-17 16:42N 55°28' E 008°27'0 0.0
2017-Oct-17 16:27N 55°28' E 008°27'0 0.0
2017-Oct-17 15:54N 55°28' E 008°27'0 0.0
2017-Oct-17 15:15N 55°28' E 008°27'0 0.0
2017-Oct-17 15:00N 55°28' E 008°27'0 0.0
2017-Oct-17 14:30N 55°28' E 008°27'0 0.0
2017-Oct-17 14:00N 55°28' E 008°27'0 0.0
2017-Oct-17 13:30N 55°28' E 008°27'0 0.0
2017-Oct-17 12:57N 55°28' E 008°27'0 0.0
2017-Oct-17 12:30N 55°28' E 008°27'0 0.0
2017-Oct-17 12:00N 55°28' E 008°27'0 0.0
2017-Oct-17 11:18N 55°28' E 008°27'0 0.0
2017-Oct-17 09:48N 55°28' E 008°27'0 0.0
2017-Oct-17 09:30N 55°28' E 008°27'0 0.0
2017-Oct-17 08:51N 55°28' E 008°27'0 0.0
2017-Oct-17 08:21N 55°28' E 008°27'0 0.0
2017-Oct-17 07:48N 55°28' E 008°27'0 0.0
2017-Oct-17 07:18N 55°28' E 008°27'0 0.0
2017-Oct-17 06:54N 55°28' E 008°27'0 0.0
2017-Oct-17 06:24N 55°28' E 008°27'0 0.0
2017-Oct-17 05:54N 55°28' E 008°27'0 0.0
2017-Oct-17 05:21N 55°28' E 008°27'0 0.0
2017-Oct-17 04:54N 55°28' E 008°27'0 0.0
2017-Oct-17 04:27N 55°28' E 008°27'0 0.0
2017-Oct-17 03:57N 55°28' E 008°27'0 0.0
2017-Oct-17 03:09N 55°28' E 008°27'0 0.0
2017-Oct-17 02:57N 55°28' E 008°27'0 0.0
2017-Oct-17 02:27N 55°28' E 008°27'0 0.0
2017-Oct-17 01:42N 55°28' E 008°27'0 0.0
2017-Oct-17 01:15N 55°28' E 008°27'0 0.0
2017-Oct-17 00:57N 55°28' E 008°27'0 0.0
2017-Oct-17 00:30N 55°28' E 008°27'0 0.0
2017-Oct-17 00:00N 55°28' E 008°27'0 0.0
2017-Oct-16 23:30N 55°28' E 008°27'0 0.0
2017-Oct-16 22:57N 55°28' E 008°27'0 0.0
2017-Oct-16 22:30N 55°28' E 008°27'0 0.0
2017-Oct-16 21:30N 55°28' E 008°27'0 0.0
2017-Oct-16 20:00N 55°28' E 008°27'0 0.0
2017-Oct-16 19:30N 55°28' E 008°27'0 0.0
2017-Oct-16 19:00N 55°28' E 008°27'0 0.0
2017-Oct-16 18:21N 55°28' E 008°27'0 0.0
2017-Oct-16 17:51N 55°28' E 008°27'0 0.0
2017-Oct-16 16:48N 55°28' E 008°27'0 0.0
2017-Oct-16 16:30N 55°28' E 008°27'1 2.9
2017-Oct-16 16:00N 55°28' E 008°25'3 6.4
2017-Oct-16 15:30N 55°28' E 008°19'4 8.6
2017-Oct-16 15:00N 55°25' E 008°13'9 9.0
2017-Oct-16 14:00N 55°24' E 007°57'4 8.6
2017-Oct-16 13:30N 55°24' E 007°50'4 8.7
2017-Oct-16 13:00N 55°26' E 007°43'1 1.0
2017-Oct-16 12:30N 55°26' E 007°42'2 3.2
2017-Oct-16 12:00N 55°27' E 007°39'2 3.8
2017-Oct-16 11:30N 55°28' E 007°36'1 2.5
2017-Oct-16 11:00N 55°28' E 007°34'1 2.8
2017-Oct-16 10:30N 55°29' E 007°33'2 4.4
2017-Oct-16 10:00N 55°31' E 007°30'3 5.8
2017-Oct-16 09:30N 55°33' E 007°26'3 5.8
2017-Oct-16 09:00N 55°35' E 007°22'1 2.9
2017-Oct-16 08:30N 55°36' E 007°21'2 4.7
2017-Oct-16 08:00N 55°38' E 007°20'3 5.2
2017-Oct-16 07:30N 55°41' E 007°18'2 4.6
2017-Oct-16 07:00N 55°43' E 007°16'2 4.8
2017-Oct-16 06:30N 55°45' E 007°14'2 3.5
2017-Oct-16 05:59N 55°46' E 007°12'2 4.0
2017-Oct-16 05:30N 55°48' E 007°11'2 4.6
2017-Oct-16 05:00N 55°50' E 007°09'54 3.4
2017-Oct-15 12:55N 56°44' E 006°56'2 4.2
2017-Oct-15 12:30N 56°44' E 006°60'30 3.3
2017-Oct-15 03:18N 56°49' E 007°54'2 4.3
2017-Oct-15 02:52N 56°50' E 007°52'7 3.3
2017-Oct-15 00:42N 56°57' E 007°46'1 2.4
2017-Oct-15 00:15N 56°58' E 007°46'1 3.3
2017-Oct-14 23:57N 56°59' E 007°46'2 3.9
2017-Oct-14 23:30N 57°01' E 007°46'2 4.6
2017-Oct-14 22:59N 57°03' E 007°46'2 3.9
2017-Oct-14 22:29N 57°05' E 007°46'31 5.7
2017-Oct-14 17:04N 57°36' E 007°43'3 6.4
2017-Oct-14 16:36N 57°39' E 007°43'1 5.7
2017-Oct-14 16:30N 57°39' E 007°43'3 5.4
2017-Oct-14 15:57N 57°42' E 007°44'3 5.9
2017-Oct-14 15:30N 57°45' E 007°45'3 6.6
2017-Oct-14 14:59N 57°48' E 007°46'3 6.0
2017-Oct-14 14:29N 57°51' E 007°48'3 6.1
2017-Oct-14 14:00N 57°54' E 007°49'2 4.1
2017-Oct-14 13:30N 57°56' E 007°47'2 3.4
2017-Oct-14 13:00N 57°57' E 007°48'3 6.5
2017-Oct-14 12:30N 57°60' E 007°52'3 6.8
2017-Oct-14 12:00N 58°01' E 007°57'3 6.6
2017-Oct-14 11:30N 58°03' E 008°03'3 7.1
2017-Oct-14 11:00N 58°06' E 008°02'3 5.4
2017-Oct-14 10:30N 58°09' E 007°59'0 0.0
2017-Oct-14 10:00N 58°09' E 007°59'0 0.0
2017-Oct-14 09:30N 58°09' E 007°59'0 0.0
2017-Oct-14 09:00N 58°09' E 007°59'0 0.0
2017-Oct-14 08:30N 58°09' E 007°59'0 0.0
2017-Oct-14 08:00N 58°09' E 007°59'0 0.0
2017-Oct-14 07:30N 58°09' E 007°59'0 0.0
2017-Oct-14 07:00N 58°09' E 007°59'0 0.0
2017-Oct-14 06:30N 58°09' E 007°59'0 0.0
2017-Oct-14 06:00N 58°09' E 007°59'0 0.0
2017-Oct-14 05:30N 58°09' E 007°59'0 0.0
2017-Oct-14 05:00N 58°09' E 007°59'0 0.0
2017-Oct-14 04:30N 58°09' E 007°59'0 0.0
2017-Oct-14 04:00N 58°09' E 007°59'0 0.0
2017-Oct-14 03:30N 58°09' E 007°59'0 0.0
2017-Oct-14 03:00N 58°09' E 007°59'0 0.0
2017-Oct-14 02:30N 58°09' E 007°59'0 0.0
2017-Oct-14 02:00N 58°09' E 007°59'0 0.0
2017-Oct-14 01:30N 58°09' E 007°59'0 0.0
2017-Oct-14 01:00N 58°09' E 007°59'0 0.0
2017-Oct-14 00:30N 58°09' E 007°59'0 0.0
2017-Oct-14 00:00N 58°09' E 007°59'0 0.0
2017-Oct-13 23:30N 58°09' E 007°59'0 0.0
2017-Oct-13 23:00N 58°09' E 007°59'0 0.0
2017-Oct-13 22:30N 58°09' E 007°59'0 0.0
2017-Oct-13 22:00N 58°09' E 007°59'0 0.0
2017-Oct-13 21:30N 58°09' E 007°59'0 0.0
2017-Oct-13 21:00N 58°09' E 007°59'0 0.0
2017-Oct-13 20:30N 58°09' E 007°59'0 0.0
2017-Oct-13 20:00N 58°09' E 007°59'0 0.0
2017-Oct-13 19:30N 58°09' E 007°59'0 0.0
2017-Oct-13 19:00N 58°09' E 007°59'0 0.0
2017-Oct-13 18:30N 58°09' E 007°59'0 0.0
2017-Oct-13 18:00N 58°09' E 007°59'0 0.0
2017-Oct-13 17:30N 58°09' E 007°59'0 0.0
2017-Oct-13 17:00N 58°09' E 007°59'0 0.0
2017-Oct-13 16:30N 58°09' E 007°59'0 0.0
2017-Oct-13 16:00N 58°09' E 007°59'0 0.0
2017-Oct-13 15:30N 58°09' E 007°59'0 0.0
2017-Oct-13 15:00N 58°09' E 007°59'0 0.0
2017-Oct-13 14:30N 58°09' E 007°59'0 0.0
2017-Oct-13 14:00N 58°09' E 007°59'0 0.0
2017-Oct-13 13:27N 58°09' E 007°59'0 0.0
2017-Oct-13 13:00N 58°09' E 007°59'0 0.0
2017-Oct-13 12:30N 58°09' E 007°59'0 0.0
2017-Oct-13 12:00N 58°09' E 007°59'0 0.0
2017-Oct-13 11:30N 58°09' E 007°59'0 0.0
2017-Oct-13 11:00N 58°09' E 007°59'0 0.0
2017-Oct-13 10:30N 58°09' E 007°59'0 0.0
2017-Oct-13 10:00N 58°09' E 007°59'0 0.0
2017-Oct-13 09:30N 58°09' E 007°59'0 0.0
2017-Oct-13 09:00N 58°09' E 007°59'0 0.0
2017-Oct-13 08:30N 58°09' E 007°59'0 0.0
2017-Oct-13 08:00N 58°09' E 007°59'0 0.0
2017-Oct-12 16:21N 58°09' E 007°59'0 0.0
2017-Oct-12 16:00N 58°09' E 007°59'0 0.0
2017-Oct-12 15:30N 58°09' E 007°59'0 0.0
2017-Oct-12 15:00N 58°09' E 007°59'0 0.0
2017-Oct-12 14:30N 58°09' E 007°59'0 0.0
2017-Oct-12 14:00N 58°09' E 007°59'0 0.0
2017-Oct-12 13:30N 58°09' E 007°59'0 0.0
2017-Oct-12 13:00N 58°09' E 007°59'0 0.0
2017-Oct-12 12:30N 58°09' E 007°59'0 0.0
2017-Oct-12 12:00N 58°09' E 007°59'0 0.0
2017-Oct-12 11:30N 58°09' E 007°59'0 0.0
2017-Oct-12 11:00N 58°09' E 007°59'0 0.0
2017-Oct-12 10:30N 58°09' E 007°59'0 0.0
2017-Oct-12 10:00N 58°09' E 007°59'0 0.0
2017-Oct-12 09:30N 58°09' E 007°59'0 0.0
2017-Oct-12 09:00N 58°09' E 007°59'0 0.0
2017-Oct-12 08:30N 58°09' E 007°59'0 0.0
2017-Oct-12 08:00N 58°09' E 007°59'0 0.1
2017-Oct-12 07:30N 58°09' E 007°59'0 0.1
2017-Oct-12 07:00N 58°09' E 007°59'0 0.0
2017-Oct-12 06:30N 58°09' E 007°59'0 0.0
2017-Oct-12 06:00N 58°09' E 007°59'0 0.0
2017-Oct-12 05:30N 58°09' E 007°59'0 0.0
2017-Oct-12 05:00N 58°09' E 007°59'0 0.0
2017-Oct-12 04:30N 58°09' E 007°59'0 0.0
2017-Oct-12 04:00N 58°09' E 007°59'0 0.0
2017-Oct-12 03:30N 58°09' E 007°59'0 0.0
2017-Oct-12 03:00N 58°09' E 007°59'0 0.0
2017-Oct-12 02:30N 58°09' E 007°59'0 0.0
2017-Oct-12 02:00N 58°09' E 007°59'0 0.0
2017-Oct-12 01:30N 58°09' E 007°59'0 0.0
2017-Oct-12 01:00N 58°09' E 007°59'0 0.0
2017-Oct-12 00:30N 58°09' E 007°59'0 0.0
2017-Oct-12 00:00N 58°09' E 007°59'0 0.1
2017-Oct-11 23:30N 58°09' E 007°59'2 3.4
2017-Oct-11 22:59N 58°07' E 008°01'4 7.3
2017-Oct-11 22:30N 58°04' E 008°05'3 5.6
2017-Oct-11 22:00N 58°04' E 008°11'2 4.8
2017-Oct-11 21:30N 58°04' E 008°15'2 4.0
2017-Oct-11 21:00N 58°03' E 008°19'3 5.6
2017-Oct-11 20:30N 58°03' E 008°24'3 5.7
2017-Oct-11 20:00N 58°02' E 008°29'3 5.7
2017-Oct-11 19:30N 58°02' E 008°35'3 5.0
2017-Oct-11 19:00N 58°01' E 008°39'2 4.6
2017-Oct-11 18:29N 57°60' E 008°43'2 4.3
2017-Oct-11 17:55N 57°59' E 008°47'80 4.4
2017-Oct-11 00:00N 57°53' E 011°17'2 4.2
2017-Oct-10 23:30N 57°52' E 011°13'3 5.0
2017-Oct-10 22:59N 57°50' E 011°10'3 5.3
2017-Oct-10 22:29N 57°47' E 011°10'3 5.4
2017-Oct-10 22:00N 57°45' E 011°09'2 4.5
2017-Oct-10 21:30N 57°43' E 011°08'2 4.9
2017-Oct-10 21:00N 57°40' E 011°08'3 6.8
2017-Oct-10 20:30N 57°37' E 011°08'4 7.7
2017-Oct-10 20:00N 57°33' E 011°11'4 7.6
2017-Oct-10 19:30N 57°30' E 011°14'3 6.5
2017-Oct-10 19:00N 57°27' E 011°18'4 7.0
2017-Oct-10 18:30N 57°24' E 011°20'4 8.7
2017-Oct-10 18:00N 57°20' E 011°22'610.2
2017-Oct-10 17:24N 57°14' E 011°25'4 9.0
2017-Oct-10 17:00N 57°12' E 011°30'5 9.0
2017-Oct-10 16:30N 57°09' E 011°37'58 8.4
2017-Oct-10 09:31N 56°14' E 012°16'010.1
2017-Oct-10 09:30N 56°14' E 012°16'510.1
2017-Oct-10 09:00N 56°11' E 012°23'510.2
2017-Oct-10 08:30N 56°08' E 012°30'510.5
2017-Oct-10 08:00N 56°04' E 012°37'510.2
2017-Oct-10 07:30N 55°60' E 012°41'510.1
2017-Oct-10 07:00N 55°55' E 012°45'510.2
2017-Oct-10 06:30N 55°50' E 012°45'510.3
2017-Oct-10 06:00N 55°45' E 012°42'4 8.5
2017-Oct-10 05:30N 55°42' E 012°36'1 2.1
2017-Oct-10 04:58N 55°41' E 012°36'0 0.0
2017-Oct-10 04:28N 55°41' E 012°36'0 0.0
2017-Oct-10 03:58N 55°41' E 012°36'0 0.0
2017-Oct-10 03:28N 55°41' E 012°36'0 0.0
2017-Oct-10 02:58N 55°41' E 012°36'0 0.0
2017-Oct-10 02:28N 55°41' E 012°36'0 0.0
2017-Oct-10 01:58N 55°41' E 012°36'0 0.0
2017-Oct-10 01:28N 55°41' E 012°36'0 0.0
2017-Oct-10 00:58N 55°41' E 012°36'0 0.0
2017-Oct-10 00:28N 55°41' E 012°36'0 0.0
2017-Oct-09 23:58N 55°41' E 012°36'0 0.0
2017-Oct-09 23:28N 55°41' E 012°36'0 0.0
2017-Oct-09 22:58N 55°41' E 012°36'0 0.0
2017-Oct-09 22:28N 55°41' E 012°36'0 0.0
2017-Oct-09 21:58N 55°41' E 012°36'0 0.0
2017-Oct-09 21:28N 55°41' E 012°36'0 0.0
2017-Oct-09 20:58N 55°41' E 012°36'0 0.0
2017-Oct-09 20:28N 55°41' E 012°36'0 0.0
2017-Oct-09 19:58N 55°41' E 012°36'0 0.0
2017-Oct-09 19:28N 55°41' E 012°36'0 0.0
2017-Oct-09 18:58N 55°41' E 012°36'0 0.0
2017-Oct-09 18:28N 55°41' E 012°36'0 0.0
2017-Oct-09 17:58N 55°41' E 012°36'0 0.0
2017-Oct-09 17:28N 55°41' E 012°36'0 0.0
2017-Oct-09 16:58N 55°41' E 012°36'0 0.0
2017-Oct-09 16:28N 55°41' E 012°36'0 0.0
2017-Oct-09 15:58N 55°41' E 012°36'0 0.0
2017-Oct-09 15:28N 55°41' E 012°36'0 0.0
2017-Oct-09 14:58N 55°41' E 012°36'0 0.0
2017-Oct-09 14:28N 55°41' E 012°36'0 0.0
2017-Oct-09 13:58N 55°41' E 012°36'0 0.0
2017-Oct-09 13:28N 55°41' E 012°36'0 0.0
2017-Oct-09 12:58N 55°41' E 012°36'0 0.0
2017-Oct-09 12:28N 55°41' E 012°36'0 0.0
2017-Oct-09 11:58N 55°41' E 012°36'0 0.0
2017-Oct-09 11:28N 55°41' E 012°36'0 0.0
2017-Oct-09 10:58N 55°41' E 012°36'0 0.0
2017-Oct-09 10:28N 55°41' E 012°36'0 0.0
2017-Oct-09 09:58N 55°41' E 012°36'0 0.0
2017-Oct-09 09:28N 55°41' E 012°36'0 0.0
2017-Oct-09 08:58N 55°41' E 012°36'0 0.0
2017-Oct-09 08:28N 55°41' E 012°36'0 0.0
2017-Oct-09 07:58N 55°41' E 012°36'0 0.0
2017-Oct-09 07:28N 55°41' E 012°36'0 0.0
2017-Oct-09 06:58N 55°41' E 012°36'0 0.0
2017-Oct-09 06:28N 55°41' E 012°36'0 0.0
2017-Oct-09 05:58N 55°41' E 012°36'0 0.0
2017-Oct-09 05:28N 55°41' E 012°36'0 0.0
2017-Oct-09 04:58N 55°41' E 012°36'0 0.0
2017-Oct-09 04:28N 55°41' E 012°36'0 0.0
2017-Oct-09 03:58N 55°41' E 012°36'0 0.0
2017-Oct-09 03:28N 55°41' E 012°36'0 0.0
2017-Oct-09 02:58N 55°41' E 012°36'0 0.0
2017-Oct-09 02:28N 55°41' E 012°36'0 0.0
2017-Oct-09 01:58N 55°41' E 012°36'0 0.0
2017-Oct-09 01:25N 55°41' E 012°36'0 0.0
2017-Oct-09 00:58N 55°41' E 012°36'0 0.0
2017-Oct-09 00:28N 55°41' E 012°36'0 0.0
2017-Oct-08 23:58N 55°41' E 012°36'0 0.0
2017-Oct-08 23:28N 55°41' E 012°36'0 0.0
2017-Oct-08 22:58N 55°41' E 012°36'  

Dump ship's entire track history